ACA1 CYYZ-RJTT
Flight info
| Callsign | ACA1 |
|---|---|
| Flight time | N/A |
| Altitude | 28000 |
| Route | KISEP4 SILVU DCT 5330N09000W/N0483F300 59N100W 6130N11000W 63N120W 64N130W/N0484F320 DCT FANES NCA22 ENN DCT 63N160W DCT NOLTI/N0487F330 R220 NAYLD/N0485F340 R220 NANDY DCT HAXIT M523 ISMAV/N0481F360 M523 IPGUD Y800 ESNIP Y810 AKRIT Y807 POLIX |
| Aircraft | B77W/H-SDE1E2E3FGHIJ2J3J4J5M1RWXY/LB1D1 |
Departure
| Time | N/A |
|---|---|
| Airport | Toronto Pearson International Airport (CYYZ) |
Arrival
| Time | 2026-04-30 03:59 |
|---|---|
| Airport | Tokyo Haneda International Airport (RJTT) |
| Time | Latitude | Longitude | Altitude | Speed | Heading |
|---|---|---|---|---|---|
| 2026-04-30 03:17 | 35.97134 | 141.83960 | 36232 ft | 386 kts | 250° |
| 2026-04-30 03:18 | 35.95817 | 141.79614 | 36227 ft | 374 kts | 257° |
| 2026-04-30 03:18 | 35.94748 | 141.73276 | 36245 ft | 382 kts | 261° |
| 2026-04-30 03:19 | 35.94378 | 141.66681 | 36246 ft | 388 kts | 269° |
| 2026-04-30 03:19 | 35.94444 | 141.60095 | 35652 ft | 386 kts | 269° |
| 2026-04-30 03:20 | 35.94476 | 141.56797 | 35148 ft | 381 kts | 269° |
| 2026-04-30 03:20 | 35.94501 | 141.53536 | 34612 ft | 378 kts | 269° |
| 2026-04-30 03:20 | 35.94519 | 141.50292 | 34049 ft | 376 kts | 269° |
| 2026-04-30 03:20 | 35.94534 | 141.47073 | 33497 ft | 373 kts | 269° |
| 2026-04-30 03:21 | 35.94546 | 141.43913 | 32941 ft | 370 kts | 269° |
| 2026-04-30 03:21 | 35.94556 | 141.40737 | 32406 ft | 368 kts | 268° |
| 2026-04-30 03:21 | 35.94565 | 141.37584 | 31895 ft | 365 kts | 268° |
| 2026-04-30 03:21 | 35.94574 | 141.34464 | 31371 ft | 362 kts | 268° |
| 2026-04-30 03:22 | 35.94581 | 141.31395 | 30861 ft | 360 kts | 268° |
| 2026-04-30 03:22 | 35.94589 | 141.28305 | 30362 ft | 358 kts | 268° |
| 2026-04-30 03:22 | 35.94595 | 141.25225 | 29787 ft | 356 kts | 268° |
| 2026-04-30 03:22 | 35.94600 | 141.22177 | 29237 ft | 354 kts | 268° |
| 2026-04-30 03:23 | 35.94609 | 141.19141 | 28722 ft | 352 kts | 269° |
| 2026-04-30 03:23 | 35.94623 | 141.16169 | 28231 ft | 349 kts | 269° |
| 2026-04-30 03:23 | 35.94638 | 141.13174 | 27732 ft | 347 kts | 269° |
| 2026-04-30 03:23 | 35.94651 | 141.10202 | 27241 ft | 345 kts | 269° |
| 2026-04-30 03:24 | 35.94664 | 141.07246 | 26769 ft | 342 kts | 269° |
| 2026-04-30 03:24 | 35.94674 | 141.04318 | 26303 ft | 341 kts | 269° |
| 2026-04-30 03:24 | 35.94684 | 141.01399 | 25838 ft | 339 kts | 269° |
| 2026-04-30 03:24 | 35.94886 | 140.98506 | 25375 ft | 339 kts | 278° |
| 2026-04-30 03:25 | 35.95479 | 140.95721 | 24919 ft | 340 kts | 284° |
| 2026-04-30 03:25 | 35.96275 | 140.92962 | 24451 ft | 342 kts | 289° |
| 2026-04-30 03:25 | 35.97405 | 140.90350 | 23987 ft | 346 kts | 297° |
| 2026-04-30 03:25 | 35.98705 | 140.87843 | 23472 ft | 346 kts | 297° |
| 2026-04-30 03:26 | 36.00010 | 140.85351 | 22962 ft | 345 kts | 297° |
| 2026-04-30 03:26 | 36.01305 | 140.82864 | 22490 ft | 343 kts | 297° |
| 2026-04-30 03:26 | 36.02586 | 140.80385 | 22037 ft | 341 kts | 297° |
| 2026-04-30 03:26 | 36.03841 | 140.77940 | 21594 ft | 339 kts | 297° |
| 2026-04-30 03:27 | 36.05105 | 140.75468 | 21141 ft | 338 kts | 297° |
| 2026-04-30 03:27 | 36.06361 | 140.73006 | 20695 ft | 338 kts | 297° |
| 2026-04-30 03:27 | 36.07614 | 140.70549 | 20250 ft | 337 kts | 297° |
| 2026-04-30 03:27 | 36.08851 | 140.68117 | 19803 ft | 337 kts | 297° |
| 2026-04-30 03:28 | 36.10101 | 140.65647 | 19347 ft | 337 kts | 297° |
| 2026-04-30 03:28 | 36.11344 | 140.63184 | 18889 ft | 338 kts | 297° |
| 2026-04-30 03:28 | 36.12590 | 140.60712 | 18406 ft | 339 kts | 298° |
| 2026-04-30 03:28 | 36.13844 | 140.58223 | 17890 ft | 340 kts | 298° |
| 2026-04-30 03:29 | 36.15080 | 140.55770 | 17411 ft | 340 kts | 298° |
| 2026-04-30 03:29 | 36.16329 | 140.53291 | 16955 ft | 340 kts | 299° |
| 2026-04-30 03:29 | 36.17581 | 140.50803 | 16480 ft | 340 kts | 300° |
| 2026-04-30 03:29 | 36.18834 | 140.48312 | 16016 ft | 341 kts | 300° |
| 2026-04-30 03:30 | 36.20086 | 140.45816 | 15551 ft | 339 kts | 299° |
| 2026-04-30 03:30 | 36.20972 | 140.43149 | 15133 ft | 335 kts | 280° |
| 2026-04-30 03:30 | 36.21129 | 140.40289 | 14841 ft | 331 kts | 270° |
| 2026-04-30 03:30 | 36.21135 | 140.37442 | 14541 ft | 330 kts | 271° |
| 2026-04-30 03:31 | 36.21166 | 140.34626 | 14244 ft | 332 kts | 272° |
| 2026-04-30 03:31 | 36.21208 | 140.31738 | 13926 ft | 336 kts | 272° |
| 2026-04-30 03:31 | 36.21058 | 140.28870 | 13553 ft | 335 kts | 256° |
| 2026-04-30 03:31 | 36.20041 | 140.26274 | 13250 ft | 339 kts | 232° |
| 2026-04-30 03:32 | 36.18278 | 140.24320 | 12837 ft | 344 kts | 212° |
| 2026-04-30 03:32 | 36.16081 | 140.23214 | 12509 ft | 339 kts | 193° |
| 2026-04-30 03:32 | 36.13767 | 140.22755 | 12281 ft | 333 kts | 190° |
| 2026-04-30 03:32 | 36.11513 | 140.22357 | 12020 ft | 329 kts | 189° |
| 2026-04-30 03:33 | 36.09250 | 140.21944 | 11763 ft | 326 kts | 190° |
| 2026-04-30 03:33 | 36.07014 | 140.21516 | 11523 ft | 323 kts | 190° |
| 2026-04-30 03:33 | 36.04824 | 140.21086 | 11290 ft | 323 kts | 191° |
| 2026-04-30 03:33 | 36.02592 | 140.20645 | 11049 ft | 325 kts | 190° |
| 2026-04-30 03:34 | 36.00346 | 140.20356 | 10867 ft | 324 kts | 184° |
| 2026-04-30 03:34 | 35.98098 | 140.20318 | 10697 ft | 323 kts | 181° |
| 2026-04-30 03:34 | 35.95867 | 140.20338 | 10523 ft | 316 kts | 181° |
| 2026-04-30 03:34 | 35.93702 | 140.20350 | 10352 ft | 308 kts | 181° |
| 2026-04-30 03:35 | 35.91590 | 140.20345 | 10195 ft | 299 kts | 182° |
| 2026-04-30 03:35 | 35.89550 | 140.20327 | 10021 ft | 291 kts | 182° |
| 2026-04-30 03:35 | 35.87551 | 140.20302 | 9856 ft | 283 kts | 182° |
| 2026-04-30 03:35 | 35.85609 | 140.20273 | 9702 ft | 275 kts | 182° |
| 2026-04-30 03:36 | 35.83706 | 140.20241 | 9567 ft | 273 kts | 183° |
| 2026-04-30 03:36 | 35.81804 | 140.20209 | 9431 ft | 273 kts | 183° |
| 2026-04-30 03:36 | 35.79905 | 140.20177 | 9298 ft | 273 kts | 183° |
| 2026-04-30 03:36 | 35.78001 | 140.20147 | 9153 ft | 273 kts | 182° |
| 2026-04-30 03:37 | 35.76119 | 140.20205 | 9003 ft | 273 kts | 180° |
| 2026-04-30 03:37 | 35.74219 | 140.20307 | 8868 ft | 272 kts | 180° |
| 2026-04-30 03:37 | 35.72328 | 140.20410 | 8718 ft | 271 kts | 180° |
| 2026-04-30 03:37 | 35.70459 | 140.20506 | 8579 ft | 270 kts | 180° |
| 2026-04-30 03:38 | 35.68579 | 140.20598 | 8440 ft | 269 kts | 180° |
| 2026-04-30 03:38 | 35.66726 | 140.20686 | 8293 ft | 263 kts | 180° |
| 2026-04-30 03:38 | 35.64918 | 140.20771 | 8149 ft | 255 kts | 180° |
| 2026-04-30 03:38 | 35.63179 | 140.20853 | 8051 ft | 244 kts | 180° |
| 2026-04-30 03:39 | 35.61523 | 140.20900 | 7986 ft | 231 kts | 182° |
| 2026-04-30 03:39 | 35.59922 | 140.20909 | 8003 ft | 234 kts | 182° |
| 2026-04-30 03:39 | 35.58290 | 140.20917 | 8001 ft | 233 kts | 182° |
| 2026-04-30 03:39 | 35.56680 | 140.20928 | 8048 ft | 228 kts | 182° |
| 2026-04-30 03:40 | 35.55101 | 140.20939 | 8002 ft | 229 kts | 182° |
| 2026-04-30 03:40 | 35.53507 | 140.20951 | 7997 ft | 227 kts | 182° |
| 2026-04-30 03:40 | 35.51930 | 140.20964 | 7994 ft | 226 kts | 182° |
| 2026-04-30 03:40 | 35.50358 | 140.21009 | 7980 ft | 225 kts | 174° |
| 2026-04-30 03:41 | 35.48921 | 140.21808 | 8000 ft | 235 kts | 140° |
| 2026-04-30 03:41 | 35.47822 | 140.23348 | 8016 ft | 244 kts | 131° |
| 2026-04-30 03:41 | 35.46762 | 140.24982 | 7997 ft | 244 kts | 131° |
| 2026-04-30 03:41 | 35.46061 | 140.26058 | 7991 ft | 243 kts | 131° |
| 2026-04-30 03:42 | 35.44663 | 140.28193 | 7989 ft | 241 kts | 131° |
| 2026-04-30 03:42 | 35.43612 | 140.29791 | 7981 ft | 239 kts | 131° |
| 2026-04-30 03:42 | 35.42909 | 140.30830 | 7978 ft | 234 kts | 137° |
| 2026-04-30 03:42 | 35.41580 | 140.31908 | 8014 ft | 230 kts | 158° |
| 2026-04-30 03:43 | 35.40101 | 140.32758 | 8004 ft | 238 kts | 157° |
| 2026-04-30 03:43 | 35.38608 | 140.33657 | 8001 ft | 239 kts | 156° |
| 2026-04-30 03:43 | 35.37127 | 140.34557 | 7981 ft | 236 kts | 156° |
| 2026-04-30 03:43 | 35.35654 | 140.35441 | 7973 ft | 232 kts | 160° |
| 2026-04-30 03:44 | 35.34146 | 140.35835 | 8009 ft | 225 kts | 177° |
| 2026-04-30 03:44 | 35.32548 | 140.36032 | 7996 ft | 234 kts | 176° |
| 2026-04-30 03:44 | 35.30925 | 140.36245 | 7991 ft | 235 kts | 176° |
| 2026-04-30 03:44 | 35.29303 | 140.36457 | 7984 ft | 233 kts | 176° |
| 2026-04-30 03:45 | 35.27695 | 140.36677 | 7975 ft | 231 kts | 176° |
| 2026-04-30 03:45 | 35.26099 | 140.36892 | 7979 ft | 229 kts | 176° |
| 2026-04-30 03:45 | 35.24517 | 140.37102 | 7983 ft | 228 kts | 176° |
| 2026-04-30 03:45 | 35.22940 | 140.37309 | 7982 ft | 228 kts | 176° |
| 2026-04-30 03:46 | 35.21340 | 140.37515 | 7756 ft | 236 kts | 176° |
| 2026-04-30 03:46 | 35.19712 | 140.37724 | 7480 ft | 236 kts | 176° |
| 2026-04-30 03:46 | 35.18106 | 140.37939 | 7339 ft | 226 kts | 176° |
| 2026-04-30 03:46 | 35.16578 | 140.38145 | 7320 ft | 216 kts | 176° |
| 2026-04-30 03:47 | 35.15061 | 140.38349 | 7337 ft | 223 kts | 176° |
| 2026-04-30 03:47 | 35.13489 | 140.38550 | 7349 ft | 229 kts | 177° |
| 2026-04-30 03:47 | 35.11935 | 140.38355 | 7327 ft | 224 kts | 205° |
| 2026-04-30 03:47 | 35.10758 | 140.37202 | 7325 ft | 221 kts | 237° |
| 2026-04-30 03:48 | 35.10305 | 140.35424 | 7323 ft | 223 kts | 269° |
| 2026-04-30 03:48 | 35.10717 | 140.33601 | 7333 ft | 225 kts | 294° |
| 2026-04-30 03:48 | 35.11546 | 140.31980 | 7305 ft | 231 kts | 301° |
| 2026-04-30 03:48 | 35.12476 | 140.30330 | 7183 ft | 235 kts | 302° |
| 2026-04-30 03:49 | 35.13399 | 140.28708 | 7102 ft | 232 kts | 302° |
| 2026-04-30 03:49 | 35.14266 | 140.27056 | 6929 ft | 230 kts | 298° |
| 2026-04-30 03:49 | 35.15100 | 140.25404 | 6752 ft | 227 kts | 298° |
| 2026-04-30 03:49 | 35.15925 | 140.23764 | 6566 ft | 224 kts | 298° |
| 2026-04-30 03:50 | 35.16738 | 140.22150 | 6401 ft | 222 kts | 298° |
| 2026-04-30 03:50 | 35.17540 | 140.20566 | 6241 ft | 223 kts | 300° |
| 2026-04-30 03:50 | 35.18674 | 140.19225 | 6052 ft | 233 kts | 325° |
| 2026-04-30 03:50 | 35.20094 | 140.18211 | 5914 ft | 239 kts | 327° |
| 2026-04-30 03:51 | 35.21457 | 140.17067 | 5744 ft | 236 kts | 317° |
| 2026-04-30 03:51 | 35.22598 | 140.15641 | 5574 ft | 233 kts | 306° |
| 2026-04-30 03:51 | 35.23482 | 140.14033 | 5410 ft | 229 kts | 297° |
| 2026-04-30 03:51 | 35.24176 | 140.12286 | 5257 ft | 226 kts | 292° |
| 2026-04-30 03:52 | 35.24794 | 140.10521 | 5093 ft | 225 kts | 291° |
| 2026-04-30 03:52 | 35.25402 | 140.08747 | 4936 ft | 226 kts | 291° |
| 2026-04-30 03:52 | 35.26008 | 140.06950 | 4734 ft | 230 kts | 291° |
| 2026-04-30 03:52 | 35.26611 | 140.05151 | 4598 ft | 232 kts | 291° |
| 2026-04-30 03:53 | 35.27222 | 140.03312 | 4414 ft | 233 kts | 291° |
| 2026-04-30 03:53 | 35.27834 | 140.01465 | 4231 ft | 234 kts | 291° |
| 2026-04-30 03:53 | 35.28442 | 139.99609 | 4053 ft | 235 kts | 291° |
| 2026-04-30 03:53 | 35.29048 | 139.97743 | 3875 ft | 236 kts | 291° |
| 2026-04-30 03:54 | 35.29777 | 139.95981 | 3662 ft | 230 kts | 312° |
| 2026-04-30 03:54 | 35.30981 | 139.94796 | 3614 ft | 225 kts | 328° |
| 2026-04-30 03:54 | 35.32315 | 139.93748 | 3571 ft | 231 kts | 330° |
| 2026-04-30 03:54 | 35.33703 | 139.92730 | 3528 ft | 232 kts | 332° |
| 2026-04-30 03:55 | 35.35083 | 139.91747 | 3493 ft | 226 kts | 331° |
| 2026-04-30 03:55 | 35.36432 | 139.90792 | 3488 ft | 221 kts | 332° |
| 2026-04-30 03:55 | 35.37776 | 139.89844 | 3509 ft | 225 kts | 331° |
| 2026-04-30 03:55 | 35.39139 | 139.88878 | 3367 ft | 233 kts | 331° |
| 2026-04-30 03:56 | 35.40550 | 139.87878 | 3041 ft | 234 kts | 332° |
| 2026-04-30 03:56 | 35.41930 | 139.86897 | 2735 ft | 222 kts | 332° |
| 2026-04-30 03:56 | 35.43222 | 139.85980 | 2428 ft | 207 kts | 332° |
| 2026-04-30 03:56 | 35.44421 | 139.85127 | 2136 ft | 192 kts | 332° |
| 2026-04-30 03:57 | 35.45577 | 139.84310 | 1914 ft | 193 kts | 333° |
| 2026-04-30 03:57 | 35.46742 | 139.83483 | 1632 ft | 192 kts | 332° |
| 2026-04-30 03:57 | 35.47865 | 139.82684 | 1375 ft | 187 kts | 332° |
| 2026-04-30 03:57 | 35.48986 | 139.81887 | 1130 ft | 185 kts | 332° |
| 2026-04-30 03:58 | 35.50089 | 139.81103 | 894 ft | 180 kts | 332° |
| 2026-04-30 03:58 | 35.51135 | 139.80357 | 634 ft | 166 kts | 333° |
| 2026-04-30 03:58 | 35.52086 | 139.79650 | 402 ft | 155 kts | 333° |
| 2026-04-30 03:58 | 35.53007 | 139.79004 | 217 ft | 151 kts | 334° |
| 2026-04-30 03:59 | 35.53922 | 139.78371 | 49 ft | 153 kts | 334° |
| 2026-04-30 03:59 | 35.54764 | 139.77774 | 30 ft | 117 kts | 329° |
| 2026-04-30 03:59 | 35.55299 | 139.77412 | 29 ft | 48 kts | 330° |
| 2026-04-30 03:59 | 35.55516 | 139.77255 | 29 ft | 28 kts | 329° |
| 2026-04-30 04:00 | 35.55600 | 139.77151 | 29 ft | 8 kts | 262° |
| 2026-04-30 04:00 | 35.55563 | 139.77099 | 28 ft | 9 kts | 218° |
| 2026-04-30 04:00 | 35.55515 | 139.77054 | 28 ft | 8 kts | 217° |
| 2026-04-30 04:00 | 35.55463 | 139.77040 | 28 ft | 8 kts | 168° |
| 2026-04-30 04:01 | 35.55414 | 139.77067 | 28 ft | 6 kts | 153° |
| 2026-04-30 04:01 | 35.55378 | 139.77090 | 28 ft | 6 kts | 152° |
| 2026-04-30 04:01 | 35.55341 | 139.77111 | 28 ft | 4 kts | 173° |
| 2026-04-30 04:01 | 35.55328 | 139.77091 | 28 ft | 3 kts | 248° |
| 2026-04-30 04:02 | 35.55318 | 139.77063 | 28 ft | 4 kts | 244° |
| 2026-04-30 04:02 | 35.55298 | 139.77042 | 28 ft | 4 kts | 196° |
| 2026-04-30 04:02 | 35.55263 | 139.77049 | 28 ft | 7 kts | 161° |
| 2026-04-30 04:02 | 35.55216 | 139.77078 | 28 ft | 8 kts | 151° |
| 2026-04-30 04:03 | 35.55168 | 139.77108 | 28 ft | 8 kts | 148° |
| 2026-04-30 04:03 | 35.55110 | 139.77152 | 28 ft | 11 kts | 148° |
| 2026-04-30 04:03 | 35.55042 | 139.77202 | 28 ft | 11 kts | 149° |
| 2026-04-30 04:03 | 35.54969 | 139.77254 | 28 ft | 12 kts | 150° |
| 2026-04-30 04:04 | 35.54898 | 139.77304 | 28 ft | 11 kts | 150° |
| 2026-04-30 04:04 | 35.54836 | 139.77302 | 28 ft | 9 kts | 219° |
| 2026-04-30 04:04 | 35.54802 | 139.77243 | 28 ft | 9 kts | 238° |
| 2026-04-30 04:04 | 35.54771 | 139.77180 | 28 ft | 9 kts | 240° |
| 2026-04-30 04:05 | 35.54739 | 139.77119 | 28 ft | 8 kts | 231° |
| 2026-04-30 04:05 | 35.54699 | 139.77070 | 28 ft | 8 kts | 231° |
| 2026-04-30 04:05 | 35.54672 | 139.77021 | 28 ft | 4 kts | 238° |
| 2026-04-30 04:05 | 35.54662 | 139.77001 | 28 ft | 3 kts | 239° |
| 2026-04-30 04:06 | 35.54657 | 139.76991 | 28 ft | 1 kts | 239° |
| 2026-04-30 04:06 | 35.54653 | 139.76982 | 28 ft | 1 kts | 239° |
| 2026-04-30 04:06 | 35.54649 | 139.76973 | 28 ft | 0 kts | 239° |
| 2026-04-30 04:06 | 35.54648 | 139.76972 | 28 ft | 0 kts | 239° |